Time;durP1;ratioP1;P1;durP2;ratioP2;P2;SDS_P1;SDS_P2;PMS_P1;PMS_P2;Temp;Humidity;BMP_temperature;BMP_pressure;BME280_temperature;BME280_humidity;BME280_pressure;Samples;Min_cycle;Max_cycle;Signal;HPM_P1;HPM_P2
2022/07/03 00:00:54;;;;;;;17.10;12.90;;;;;;;19.57;89.52;93294.72;4997483;28;20249;-76
2022/07/03 00:03:20;;;;;;;13.73;12.53;;;;;;;19.56;88.54;93287.88;5002090;28;20266;-76
2022/07/03 00:05:45;;;;;;;14.50;13.00;;;;;;;19.42;88.34;93297.91;5000053;28;20225;-76
2022/07/03 00:08:11;;;;;;;14.87;13.27;;;;;;;19.32;89.78;93281.53;5000606;28;20232;-75
2022/07/03 00:10:36;;;;;;;14.67;13.33;;;;;;;19.48;89.32;93285.25;5002506;28;20191;-75
2022/07/03 00:13:01;;;;;;;13.50;12.47;;;;;;;19.45;89.07;93286.69;5003104;28;20214;-75
2022/07/03 00:15:27;;;;;;;14.77;13.37;;;;;;;19.50;90.45;93293.66;5002025;28;20183;-75
2022/07/03 00:17:52;;;;;;;14.30;12.90;;;;;;;19.54;89.72;93297.22;5004398;28;20191;-75
2022/07/03 00:20:19;;;;;;;14.50;13.00;;;;;;;19.34;90.57;93290.75;5003461;28;20245;-76
2022/07/03 00:22:45;;;;;;;13.77;12.60;;;;;;;19.40;89.35;93294.78;5005384;28;20252;-75
2022/07/03 00:25:13;;;;;;;14.17;12.97;;;;;;;19.28;91.54;93296.53;5003663;28;20288;-76
2022/07/03 00:27:39;;;;;;;14.60;13.50;;;;;;;19.14;93.08;93294.03;5003774;28;20239;-75
2022/07/03 00:30:07;;;;;;;14.30;13.17;;;;;;;19.11;93.18;93292.00;5003021;28;20186;-75
2022/07/03 00:32:34;;;;;;;13.82;12.73;;;;;;;19.12;92.48;93299.63;5004358;28;20290;-75
2022/07/03 00:35:01;;;;;;;14.20;13.00;;;;;;;18.93;92.44;93279.88;5006543;28;20191;-76
2022/07/03 00:37:26;;;;;;;14.10;12.90;;;;;;;19.09;91.58;93278.31;5005538;28;20650;-75
2022/07/03 00:39:52;;;;;;;15.63;14.13;;;;;;;19.18;91.91;93287.00;5001715;28;20265;-75
2022/07/03 00:42:18;;;;;;;14.97;13.67;;;;;;;19.18;91.99;93284.34;5002659;28;20217;-75
2022/07/03 00:44:56;;;;;;;13.87;12.63;;;;;;;19.12;91.20;93252.00;5001553;28;20211;-75
2022/07/03 00:47:24;;;;;;;13.40;12.30;;;;;;;19.14;91.24;93252.44;5004028;28;20233;-75
2022/07/03 00:49:54;;;;;;;15.13;13.90;;;;;;;19.13;91.50;93261.47;5002913;28;20201;-75
2022/07/03 00:52:22;;;;;;;15.03;13.73;;;;;;;19.26;91.54;93267.69;5002295;28;20253;-75
2022/07/03 00:54:57;;;;;;;13.33;12.17;;;;;;;19.17;92.25;93266.94;5003246;28;20205;-75
2022/07/03 00:57:24;;;;;;;13.40;12.30;;;;;;;19.00;93.07;93248.44;5001172;28;20216;-75
2022/07/03 00:59:51;;;;;;;14.63;13.43;;;;;;;19.06;92.88;93260.41;5003695;28;20196;-74
2022/07/03 01:02:39;;;;;;;14.07;12.97;;;;;;;19.10;92.77;93261.31;5004340;28;20248;-76
2022/07/03 01:05:21;;;;;;;15.07;13.87;;;;;;;18.89;93.59;93258.56;5003552;28;20207;-75
2022/07/03 01:07:52;;;;;;;14.10;12.90;;;;;;;19.00;92.90;93259.03;5001940;28;20251;-75
2022/07/03 01:10:46;;;;;;;14.40;13.30;;;;;;;18.96;93.32;93258.06;5004407;28;20179;-75
2022/07/03 01:13:40;;;;;;;14.83;13.40;;;;;;;18.74;93.31;93223.88;5002794;28;20219;-75
2022/07/03 01:16:13;;;;;;;12.93;12.13;;;;;;;18.85;93.68;93257.63;4994345;28;20277;-75
2022/07/03 01:18:47;;;;;;;14.77;13.57;;;;;;;18.82;94.27;93252.19;5005803;28;20185;-75
2022/07/03 01:21:28;;;;;;;13.27;12.23;;;;;;;18.93;93.43;93258.69;4987996;28;20288;-75
2022/07/03 01:24:12;;;;;;;14.30;13.10;;;;;;;19.00;93.00;93259.03;5006535;28;20196;-75
2022/07/03 01:26:40;;;;;;;14.40;13.23;;;;;;;18.94;93.20;93250.44;5005272;28;20232;-74
2022/07/03 01:29:17;;;;;;;14.33;13.27;;;;;;;18.85;92.98;93246.25;5003593;28;21025;-77
2022/07/03 01:31:45;;;;;;;13.40;12.10;;;;;;;18.89;93.30;93247.19;5003840;28;20228;-75
2022/07/03 01:34:16;;;;;;;14.93;13.83;;;;;;;18.75;94.69;93251.88;5002872;28;20200;-75
2022/07/03 01:36:43;;;;;;;15.20;13.90;;;;;;;18.82;94.43;93257.47;5003137;28;20250;-75
2022/07/03 01:39:12;;;;;;;15.70;14.40;;;;;;;18.65;95.13;93252.19;5003412;28;20265;-76
2022/07/03 01:41:37;;;;;;;16.43;15.20;;;;;;;18.74;94.60;93245.03;5001674;28;20714;-75
2022/07/03 01:44:04;;;;;;;15.57;14.00;;;;;;;18.71;94.31;93251.72;5002888;28;20209;-76
2022/07/03 01:46:32;;;;;;;15.63;14.27;;;;;;;18.72;94.29;93252.50;5003999;28;20230;-76
2022/07/03 01:48:58;;;;;;;14.87;13.77;;;;;;;18.54;95.04;93261.53;5002325;28;20444;-76
2022/07/03 01:51:25;;;;;;;16.40;14.97;;;;;;;18.58;94.57;93257.19;5004464;28;20225;-75
2022/07/03 01:53:52;;;;;;;22.17;14.57;;;;;;;18.21;96.69;93250.56;4998719;28;20192;-76
2022/07/03 01:56:20;;;;;;;15.83;14.23;;;;;;;18.17;97.14;93225.06;5004900;28;20259;-75
2022/07/03 01:58:46;;;;;;;14.90;13.70;;;;;;;18.37;96.65;93256.97;5002271;28;20181;-76
2022/07/03 02:02:09;;;;;;;15.30;13.63;;;;;;;18.39;97.10;93254.06;5000649;28;20251;-76
2022/07/03 02:04:39;;;;;;;14.90;13.63;;;;;;;18.31;96.23;93245.00;4959470;29;20214;-75
2022/07/03 02:07:09;;;;;;;14.83;13.63;;;;;;;18.34;96.49;93257.59;4951672;29;20389;-75
2022/07/03 02:10:07;;;;;;;15.10;13.90;;;;;;;18.31;96.02;93252.16;4992070;28;20237;-75
2022/07/03 02:12:48;;;;;;;15.23;14.03;;;;;;;18.33;96.58;93260.56;5001319;28;20260;-75
2022/07/03 02:15:17;;;;;;;14.00;12.90;;;;;;;18.29;95.88;93249.06;5001621;28;20221;-76
2022/07/03 02:17:45;;;;;;;14.43;13.33;;;;;;;18.49;95.34;93254.53;5000467;28;20209;-75
2022/07/03 02:20:12;;;;;;;16.37;13.93;;;;;;;18.37;95.73;93256.97;5002772;28;20185;-75
2022/07/03 02:22:46;;;;;;;14.47;13.37;;;;;;;18.34;96.45;93252.31;4999927;28;20754;-75
2022/07/03 02:25:19;;;;;;;13.97;12.87;;;;;;;18.36;96.68;93259.94;5003801;28;20224;-75
2022/07/03 02:27:54;;;;;;;15.30;13.90;;;;;;;18.28;95.90;93236.91;5000979;28;20232;-75
2022/07/03 02:30:22;;;;;;;14.60;13.17;;;;;;;18.26;96.61;93249.66;5001401;28;20181;-75
2022/07/03 02:32:50;;;;;;;14.20;12.90;;;;;;;18.12;97.61;93243.72;5001146;28;20216;-75
2022/07/03 02:35:25;;;;;;;13.37;12.17;;;;;;;18.24;96.22;93251.84;5000999;28;20203;-77
2022/07/03 02:38:08;;;;;;;13.87;12.87;;;;;;;18.28;96.41;93252.78;5001917;28;20229;-75
2022/07/03 02:40:45;;;;;;;14.20;13.10;;;;;;;18.12;96.33;93233.16;5000821;28;20259;-75
2022/07/03 02:43:14;;;;;;;14.50;13.20;;;;;;;18.01;96.97;93245.13;5003255;28;20192;-76
2022/07/03 02:45:56;;;;;;;15.20;13.57;;;;;;;17.96;96.91;93234.69;4999770;28;20249;-75
2022/07/03 02:48:33;;;;;;;13.10;12.00;;;;;;;18.13;96.75;93261.16;5000926;28;20184;-75
2022/07/03 02:51:10;;;;;;;13.00;11.77;;;;;;;18.20;96.59;93269.38;5004575;28;20232;-76
2022/07/03 02:53:44;;;;;;;14.10;13.10;;;;;;;18.30;95.24;93261.97;5001902;28;20192;-76
2022/07/03 02:56:32;;;;;;;14.67;13.37;;;;;;;18.22;95.80;93260.09;4998975;28;20246;-75
2022/07/03 02:59:08;;;;;;;13.80;12.63;;;;;;;18.20;96.38;93282.59;5000618;28;20185;-76
2022/07/03 03:01:33;;;;;;;14.17;12.87;;;;;;;18.19;96.32;93276.56;5000495;28;20222;-75
2022/07/03 03:04:09;;;;;;;14.73;13.53;;;;;;;18.11;96.27;93247.47;5001665;28;20207;-76
2022/07/03 03:06:36;;;;;;;14.13;13.03;;;;;;;18.28;95.63;93269.41;4998225;28;20227;-77
2022/07/03 03:09:04;;;;;;;14.13;13.03;;;;;;;18.17;96.79;93275.28;5000753;28;20210;-76
2022/07/03 03:11:38;;;;;;;15.10;13.60;;;;;;;18.22;97.02;93285.72;4984719;28;20243;-75
2022/07/03 03:14:07;;;;;;;13.63;12.33;;;;;;;18.17;96.34;93280.59;5001757;28;20194;-76
2022/07/03 03:16:33;;;;;;;13.73;12.70;;;;;;;18.23;96.67;93287.28;5001256;28;20239;-77
2022/07/03 03:18:59;;;;;;;13.30;12.30;;;;;;;18.18;95.82;93258.38;4998793;28;20191;-76
2022/07/03 03:21:28;;;;;;;13.77;12.67;;;;;;;18.63;93.40;93271.00;4998997;28;20225;-76
2022/07/03 03:23:54;;;;;;;14.20;12.90;;;;;;;19.06;89.96;93269.13;4998714;28;20189;-75
2022/07/03 03:26:24;;;;;;;14.60;13.13;;;;;;;19.88;86.25;93284.63;5001529;28;20252;-76
2022/07/03 03:28:51;;;;;;;13.50;12.50;;;;;;;19.82;84.39;93235.56;4999825;28;20197;-76
2022/07/03 03:31:18;;;;;;;13.33;12.30;;;;;;;20.09;83.96;93274.88;5001558;28;20966;-76
2022/07/03 03:33:46;;;;;;;15.33;12.17;;;;;;;19.95;84.71;93292.09;4997148;28;20198;-77
2022/07/03 03:36:16;;;;;;;13.83;12.47;;;;;;;19.93;85.11;93281.03;5001748;28;20254;-76
2022/07/03 03:38:43;;;;;;;13.70;12.70;;;;;;;20.24;84.31;93298.22;5001893;28;20190;-76
2022/07/03 03:41:08;;;;;;;13.97;12.67;;;;;;;21.13;79.80;93305.72;4999942;28;20297;-76
2022/07/03 03:43:35;;;;;;;13.60;12.30;;;;;;;21.62;77.34;93310.06;5001881;28;20191;-76
2022/07/03 03:46:01;;;;;;;13.17;11.87;;;;;;;21.82;76.30;93303.16;5003396;28;20242;-77
2022/07/03 03:48:27;;;;;;;12.65;11.68;;;;;;;21.77;76.39;93306.03;5003264;28;20213;-76
2022/07/03 03:50:53;;;;;;;13.57;12.55;;;;;;;21.37;77.84;93302.38;5005591;28;20242;-76
2022/07/03 03:53:19;;;;;;;13.55;12.18;;;;;;;21.36;78.54;93304.25;5005357;28;20191;-76
2022/07/03 03:56:06;;;;;;;14.30;12.90;;;;;;;21.27;79.48;93294.81;5005585;28;20226;-76
2022/07/03 03:58:35;;;;;;;14.52;13.13;;;;;;;22.38;75.69;93312.94;5002606;28;20204;-76
2022/07/03 04:01:03;;;;;;;13.60;12.43;;;;;;;22.70;73.46;93313.91;5006894;28;20313;-76
2022/07/03 04:03:30;;;;;;;13.23;12.02;;;;;;;22.82;72.48;93305.94;5002894;28;20178;-77
2022/07/03 04:05:56;;;;;;;13.63;12.63;;;;;;;22.82;71.83;93303.25;5002952;28;20238;-76
2022/07/03 04:08:23;;;;;;;14.77;13.38;;;;;;;22.27;73.97;93292.44;5006666;28;20224;-76
2022/07/03 04:10:49;;;;;;;14.88;13.18;;;;;;;22.13;75.65;93300.75;5004859;28;20237;-76
2022/07/03 04:13:16;;;;;;;14.90;13.57;;;;;;;22.24;73.75;93307.19;5004130;28;20200;-77
2022/07/03 04:15:42;;;;;;;15.05;13.82;;;;;;;21.89;74.82;93303.38;5003202;28;20311;-76
2022/07/03 04:18:07;;;;;;;14.65;13.52;;;;;;;22.27;74.19;93304.63;5002610;28;20189;-75
2022/07/03 04:20:33;;;;;;;14.60;13.30;;;;;;;22.36;73.40;93307.19;4999718;28;20610;-76
2022/07/03 04:22:59;;;;;;;14.07;12.93;;;;;;;21.47;76.61;93278.81;5004838;28;20212;-76
2022/07/03 04:25:25;;;;;;;14.43;13.23;;;;;;;21.74;76.63;93296.03;5000666;28;20221;-76
2022/07/03 04:27:50;;;;;;;16.20;14.10;;;;;;;22.00;75.44;93283.22;5003615;28;20203;-74
2022/07/03 04:30:15;;;;;;;14.98;13.15;;;;;;;21.98;75.59;93288.09;5003878;28;20192;-76
2022/07/03 04:32:41;;;;;;;15.98;14.48;;;;;;;22.17;75.47;93293.66;5004393;28;20241;-74
2022/07/03 04:35:07;;;;;;;15.45;14.15;;;;;;;22.70;72.98;93285.41;5004017;28;20209;-76
2022/07/03 04:37:32;;;;;;;15.35;13.98;;;;;;;22.59;73.26;93297.63;5003867;28;20230;-73
2022/07/03 04:39:58;;;;;;;15.07;13.68;;;;;;;23.36;70.13;93293.78;5004731;28;20190;-74
2022/07/03 04:42:23;;;;;;;14.77;13.43;;;;;;;23.17;69.38;93277.59;5005978;28;20214;-74
2022/07/03 04:44:48;;;;;;;14.30;12.90;;;;;;;23.04;70.37;93300.84;5008433;28;20205;-76
2022/07/03 04:47:14;;;;;;;13.50;12.40;;;;;;;23.13;70.19;93304.16;5004276;28;20233;-75
2022/07/03 04:49:43;;;;;;;14.93;13.38;;;;;;;22.87;70.73;93300.34;5006697;28;20210;-75
2022/07/03 04:52:09;;;;;;;14.30;12.98;;;;;;;22.90;69.58;93281.81;5004008;28;20248;-75
2022/07/03 04:54:35;;;;;;;13.95;12.85;;;;;;;22.91;69.78;93296.66;5005036;28;20197;-74
2022/07/03 04:57:00;;;;;;;14.73;13.43;;;;;;;22.87;70.28;93301.13;4998527;28;20229;-76
2022/07/03 04:59:25;;;;;;;13.80;12.35;;;;;;;22.78;70.67;93292.50;5005798;28;20192;-76
2022/07/03 05:01:51;;;;;;;13.88;12.77;;;;;;;22.83;71.30;93300.25;5001953;28;20235;-74
2022/07/03 05:04:17;;;;;;;14.32;12.98;;;;;;;22.74;70.94;93286.28;5005615;28;20276;-74
2022/07/03 05:06:42;;;;;;;14.52;12.95;;;;;;;22.86;70.78;93298.81;5007562;28;21076;-74
2022/07/03 05:09:08;;;;;;;15.05;13.75;;;;;;;23.17;70.63;93309.56;5007719;28;20200;-74
2022/07/03 05:11:35;;;;;;;17.80;14.05;;;;;;;23.47;69.79;93303.59;5004223;28;20429;-73
2022/07/03 05:14:01;;;;;;;14.75;13.35;;;;;;;24.43;66.31;93291.53;5005933;28;20206;-74
2022/07/03 05:16:27;;;;;;;14.18;13.05;;;;;;;27.13;57.61;93297.56;5002183;28;20227;-74
2022/07/03 05:18:52;;;;;;;14.48;13.05;;;;;;;27.52;53.95;93313.00;5001842;28;20194;-76
2022/07/03 05:21:17;;;;;;;14.52;13.23;;;;;;;24.89;62.02;93292.53;5000786;28;20249;-76
2022/07/03 05:23:43;;;;;;;15.68;14.13;;;;;;;25.76;60.19;93293.50;5002933;28;20180;-76
2022/07/03 05:26:08;;;;;;;14.63;13.52;;;;;;;26.04;58.75;93296.69;5000809;28;20235;-76
2022/07/03 05:28:34;;;;;;;13.90;12.68;;;;;;;25.03;61.45;93292.84;5005416;28;20184;-78
2022/07/03 05:31:00;;;;;;;17.50;15.65;;;;;;;25.23;60.49;93305.09;5002009;28;20230;-74
2022/07/03 05:33:25;;;;;;;15.50;14.10;;;;;;;25.02;61.83;93292.06;5003483;28;20210;-76
2022/07/03 05:35:51;;;;;;;20.65;13.73;;;;;;;25.00;62.54;93314.91;5002170;28;20243;-77
2022/07/03 05:41:05;;;;;;;13.73;12.73;;;;;;;31.73;43.25;93327.34;4974489;28;20235;-81
2022/07/03 05:43:30;;;;;;;14.13;12.73;;;;;;;33.33;39.01;93336.63;4999214;28;20196;-80
2022/07/03 05:45:56;;;;;;;12.63;11.43;;;;;;;31.78;41.22;93332.34;4999586;28;20242;-81
2022/07/03 05:48:21;;;;;;;12.57;11.55;;;;;;;35.41;34.53;93359.72;5001276;28;20259;-75
2022/07/03 05:50:47;;;;;;;12.45;11.32;;;;;;;35.75;34.59;93359.44;4998613;28;20239;-76
2022/07/03 05:53:12;;;;;;;12.07;10.98;;;;;;;35.61;33.54;93355.06;4998739;28;20219;-77
2022/07/03 05:55:37;;;;;;;13.25;11.88;;;;;;;36.25;32.56;93341.69;5001714;28;20302;-78
2022/07/03 05:58:03;;;;;;;10.60;9.80;;;;;;;35.08;32.66;93307.13;5002144;28;20191;-76
2022/07/03 06:00:28;;;;;;;11.50;10.60;;;;;;;33.27;36.40;93357.19;4998856;28;20702;-76
2022/07/03 06:02:54;;;;;;;14.07;10.32;;;;;;;36.11;32.46;93363.03;4982996;28;20183;-76
2022/07/03 06:05:19;;;;;;;11.60;10.60;;;;;;;36.55;30.80;93367.88;4999865;28;20226;-75
2022/07/03 06:07:45;;;;;;;11.60;10.55;;;;;;;36.60;30.51;93364.66;5000305;28;20238;-76
2022/07/03 06:10:10;;;;;;;11.75;10.85;;;;;;;36.48;32.25;93357.19;5002890;28;20192;-76
2022/07/03 06:12:36;;;;;;;11.07;10.05;;;;;;;37.65;30.24;93355.84;4999600;28;20247;-77
2022/07/03 06:15:01;;;;;;;10.70;9.80;;;;;;;39.07;27.94;93365.69;4999409;28;20188;-77
2022/07/03 06:17:26;;;;;;;10.73;9.70;;;;;;;37.54;29.67;93336.28;4997312;28;20233;-79
2022/07/03 06:19:52;;;;;;;11.10;10.13;;;;;;;35.67;32.57;93353.41;5003118;28;20179;-77
2022/07/03 06:22:17;;;;;;;10.40;9.60;;;;;;;37.22;30.89;93366.34;5000419;28;20230;-78
2022/07/03 06:24:42;;;;;;;10.50;9.60;;;;;;;34.15;34.28;93343.44;5000583;28;20223;-80
2022/07/03 06:27:08;;;;;;;9.88;9.18;;;;;;;37.48;29.52;93363.31;5001166;28;20254;-80
2022/07/03 06:29:33;;;;;;;9.82;9.13;;;;;;;38.48;28.75;93365.56;5002859;28;20275;-78
2022/07/03 06:31:59;;;;;;;14.15;12.90;;;;;;;37.19;30.36;93351.59;5001134;28;20240;-76
2022/07/03 06:34:25;;;;;;;9.48;8.82;;;;;;;39.31;27.42;93368.81;5006981;28;20199;-78
2022/07/03 06:36:50;;;;;;;9.52;8.55;;;;;;;40.14;25.45;93369.06;5002800;28;20239;-78
2022/07/03 06:39:16;;;;;;;9.15;8.35;;;;;;;38.25;28.10;93350.28;5002169;28;20234;-76
2022/07/03 06:41:41;;;;;;;9.93;9.07;;;;;;;38.59;27.09;93346.19;4999530;28;20224;-76
2022/07/03 06:44:07;;;;;;;9.52;8.73;;;;;;;37.29;29.04;93336.97;5005860;28;20227;-75
2022/07/03 06:46:32;;;;;;;10.10;9.30;;;;;;;37.56;29.65;93347.53;5003330;28;20215;-75
2022/07/03 06:48:58;;;;;;;10.18;9.38;;;;;;;36.34;30.41;93341.94;5006052;28;20199;-75
2022/07/03 06:51:23;;;;;;;10.60;9.75;;;;;;;36.31;30.38;93358.34;5000398;28;20287;-75
2022/07/03 06:53:48;;;;;;;10.80;9.90;;;;;;;34.13;34.13;93334.94;5006605;28;20195;-75
2022/07/03 06:56:14;;;;;;;10.40;9.38;;;;;;;31.85;37.23;93326.94;5002274;28;20274;-74
2022/07/03 06:58:39;;;;;;;12.88;11.38;;;;;;;29.32;43.67;93316.09;5002233;28;20192;-74
2022/07/03 07:01:05;;;;;;;11.45;10.50;;;;;;;28.28;46.87;93322.25;4999598;28;20228;-74
2022/07/03 07:03:30;;;;;;;12.20;11.25;;;;;;;26.46;53.82;93308.09;5003683;28;20202;-75
2022/07/03 07:05:55;;;;;;;11.63;10.45;;;;;;;26.93;53.32;93318.38;5003682;28;20255;-77
2022/07/03 07:08:21;;;;;;;12.55;11.40;;;;;;;26.60;54.59;93310.97;5004108;28;20229;-76
2022/07/03 07:10:46;;;;;;;16.48;13.00;;;;;;;26.81;54.93;93323.16;5005695;28;20254;-73
2022/07/03 07:13:12;;;;;;;12.82;11.82;;;;;;;26.35;54.28;93315.19;5003786;28;20194;-72
2022/07/03 07:15:38;;;;;;;13.80;12.63;;;;;;;26.38;56.08;93319.81;5004485;28;20203;-73
2022/07/03 07:18:03;;;;;;;13.35;12.20;;;;;;;26.71;54.94;93317.31;5005960;28;20194;-70
2022/07/03 07:20:29;;;;;;;14.32;13.27;;;;;;;27.26;54.83;93317.69;5007218;28;20267;-72
2022/07/03 07:22:54;;;;;;;13.40;12.30;;;;;;;27.34;53.07;93303.22;5009032;28;20188;-72
2022/07/03 07:25:20;;;;;;;13.75;12.40;;;;;;;27.25;56.09;93314.22;5006928;28;20208;-73
2022/07/03 07:27:45;;;;;;;14.43;12.93;;;;;;;27.93;51.37;93305.81;5008580;28;20215;-72
2022/07/03 07:30:11;;;;;;;13.10;11.98;;;;;;;27.93;51.83;93311.19;5006795;28;20207;-74
2022/07/03 07:32:36;;;;;;;15.52;13.27;;;;;;;27.16;53.15;93304.88;5007862;28;20283;-75
2022/07/03 07:35:02;;;;;;;13.55;12.35;;;;;;;26.41;54.99;93302.28;5005290;28;20321;-75
2022/07/03 07:37:28;;;;;;;16.70;11.98;;;;;;;26.65;56.13;93291.16;5007350;28;20223;-73
2022/07/03 07:39:53;;;;;;;14.23;13.02;;;;;;;26.87;54.45;93300.28;5006120;28;20177;-76
2022/07/03 07:42:19;;;;;;;15.00;12.23;;;;;;;26.73;57.20;93298.97;5007100;28;20246;-78
2022/07/03 07:44:44;;;;;;;13.80;12.73;;;;;;;26.46;54.98;93294.69;5007496;28;20208;-77
2022/07/03 07:47:10;;;;;;;13.85;12.77;;;;;;;26.58;55.18;93302.53;5004081;28;20222;-73
2022/07/03 07:49:35;;;;;;;13.93;12.82;;;;;;;26.36;56.30;93297.22;5005503;28;20200;-74
2022/07/03 07:52:01;;;;;;;14.45;13.25;;;;;;;26.31;55.45;93298.31;5004320;28;20223;-79
2022/07/03 07:54:26;;;;;;;15.27;13.27;;;;;;;25.90;57.72;93301.78;5006585;28;20190;-82
2022/07/03 07:56:51;;;;;;;16.95;15.32;;;;;;;26.17;58.08;93303.44;5004685;28;20216;-74
2022/07/03 07:59:17;;;;;;;14.18;13.07;;;;;;;26.46;57.15;93310.78;5002631;28;20181;-76
2022/07/03 08:07:10;;;;;;;12.88;11.77;;;;;;;26.56;57.05;93278.03;5003427;28;20235;-76
2022/07/03 08:09:36;;;;;;;15.25;13.73;;;;;;;26.57;55.88;93286.81;5003229;28;20196;-80
2022/07/03 08:12:01;;;;;;;14.68;13.20;;;;;;;26.48;57.96;93273.69;5002009;28;20247;-76
2022/07/03 08:14:27;;;;;;;14.68;13.48;;;;;;;26.52;56.71;93271.81;5002063;28;20196;-76
2022/07/03 08:16:52;;;;;;;14.13;12.93;;;;;;;26.28;57.36;93292.88;5003624;28;20254;-76
2022/07/03 08:19:18;;;;;;;16.67;13.85;;;;;;;26.62;57.45;93297.22;5006685;28;20192;-74
2022/07/03 08:21:43;;;;;;;15.00;12.80;;;;;;;26.70;57.53;93275.56;5002742;28;20228;-74
2022/07/03 08:24:09;;;;;;;12.40;11.40;;;;;;;26.95;55.81;93262.50;5003036;28;20187;-77
2022/07/03 08:26:35;;;;;;;14.93;13.73;;;;;;;26.68;57.57;93245.69;5003747;28;20231;-75
2022/07/03 08:29:00;;;;;;;14.32;13.02;;;;;;;27.05;55.12;93288.69;5003371;28;20191;-76
2022/07/03 08:31:26;;;;;;;15.00;13.90;;;;;;;27.20;55.67;93284.25;5003533;28;20300;-76
2022/07/03 08:33:51;;;;;;;13.57;12.52;;;;;;;27.08;56.02;93281.81;5007563;28;20187;-69
2022/07/03 08:36:16;;;;;;;14.70;13.25;;;;;;;26.49;56.48;93197.53;5003586;28;20250;-75
2022/07/03 08:38:42;;;;;;;14.27;12.70;;;;;;;26.86;56.79;93242.47;5002250;28;20191;-76
2022/07/03 08:41:08;;;;;;;14.75;13.52;;;;;;;27.07;57.56;93272.22;4999837;28;20232;-75
2022/07/03 08:43:36;;;;;;;13.98;12.98;;;;;;;27.31;55.78;93279.81;5001726;28;20240;-75
2022/07/03 08:46:02;;;;;;;13.52;12.52;;;;;;;27.63;53.81;93280.91;5000320;28;20262;-76
2022/07/03 08:48:29;;;;;;;14.32;13.07;;;;;;;27.44;54.79;93265.78;5001098;28;20176;-75
2022/07/03 08:50:58;;;;;;;13.77;12.75;;;;;;;27.24;56.05;93236.81;5001494;28;20215;-76
2022/07/03 08:53:24;;;;;;;14.15;13.05;;;;;;;27.38;55.79;93258.44;5001584;28;20171;-75
2022/07/03 08:55:49;;;;;;;14.38;13.27;;;;;;;27.45;55.52;93226.31;5004111;28;20284;-76
2022/07/03 08:58:15;;;;;;;13.63;12.65;;;;;;;27.39;53.69;93217.84;4999433;28;20180;-77
2022/07/03 09:00:41;;;;;;;12.30;11.32;;;;;;;27.64;52.22;93234.94;5001721;28;20266;-76
2022/07/03 09:03:10;;;;;;;11.60;10.70;;;;;;;27.54;51.37;93229.47;4998419;28;20211;-76
2022/07/03 09:05:36;;;;;;;15.68;11.35;;;;;;;27.78;50.02;93277.25;5001406;28;20338;-76
2022/07/03 09:08:02;;;;;;;10.93;10.02;;;;;;;28.02;50.11;93277.50;5004772;28;20223;-76
2022/07/03 09:10:28;;;;;;;11.88;10.55;;;;;;;28.26;49.80;93278.88;5004718;28;20177;-76
2022/07/03 09:12:55;;;;;;;11.70;10.90;;;;;;;28.10;49.27;93217.34;5002255;28;20216;-76
2022/07/03 09:15:21;;;;;;;12.30;11.20;;;;;;;28.51;47.27;93269.13;5003318;28;20187;-76
2022/07/03 09:18:01;;;;;;;10.90;10.00;;;;;;;28.36;46.61;93254.00;5001311;28;20262;-76
2022/07/03 09:20:29;;;;;;;10.43;9.73;;;;;;;28.59;45.73;93270.72;5003287;28;20186;-76
2022/07/03 09:23:08;;;;;;;11.25;10.10;;;;;;;28.62;46.29;93269.97;5003117;28;20162;-75
2022/07/03 09:25:33;;;;;;;11.73;9.90;;;;;;;28.67;46.72;93258.81;5001338;28;20220;-77
2022/07/03 09:27:59;;;;;;;10.40;9.70;;;;;;;28.62;47.82;93224.25;5003900;28;20183;-76
2022/07/03 09:30:24;;;;;;;10.13;9.40;;;;;;;28.89;45.07;93251.69;5003081;28;20335;-76
2022/07/03 09:32:49;;;;;;;10.20;9.45;;;;;;;29.14;44.40;93268.72;5002034;28;20694;-76
2022/07/03 09:35:26;;;;;;;9.68;9.07;;;;;;;29.10;43.64;93266.03;5003390;28;20202;-76
2022/07/03 09:37:54;;;;;;;11.05;10.25;;;;;;;29.20;44.77;93275.28;5001706;28;20221;-76
2022/07/03 09:40:21;;;;;;;10.68;9.98;;;;;;;28.81;42.50;93234.72;5001560;28;20200;-76
2022/07/03 09:43:06;;;;;;;11.07;10.00;;;;;;;28.85;42.27;93235.53;5000385;28;20267;-77
2022/07/03 09:45:53;;;;;;;10.35;9.63;;;;;;;29.13;42.19;93270.66;5000787;28;20238;-76
2022/07/03 09:48:27;;;;;;;9.52;8.82;;;;;;;29.20;39.58;93275.28;5000533;28;20274;-76
2022/07/03 09:51:15;;;;;;;9.13;8.63;;;;;;;29.47;41.56;93252.31;5002670;28;20230;-76
2022/07/03 09:53:51;;;;;;;10.57;9.77;;;;;;;29.92;39.42;93261.69;5001457;28;20195;-76
2022/07/03 09:56:17;;;;;;;9.50;8.70;;;;;;;29.39;38.71;93175.41;5002460;28;20326;-76
2022/07/03 09:59:09;;;;;;;9.88;9.18;;;;;;;29.79;36.38;93269.34;5001927;28;20199;-76
2022/07/03 10:01:39;;;;;;;9.48;8.77;;;;;;;29.64;39.30;93249.69;4996405;28;20230;-76
2022/07/03 10:04:12;;;;;;;9.57;8.82;;;;;;;29.96;35.28;93268.63;5003645;28;20202;-77
2022/07/03 10:06:58;;;;;;;9.50;8.60;;;;;;;29.45;36.78;93219.63;5002200;28;20235;-78
2022/07/03 10:09:36;;;;;;;8.80;8.10;;;;;;;29.56;36.34;93253.50;5002427;28;20195;-74
2022/07/03 10:12:03;;;;;;;8.70;8.20;;;;;;;29.66;33.86;93260.88;5002602;28;21228;-77
2022/07/03 10:14:31;;;;;;;9.38;8.77;;;;;;;29.48;35.55;93245.78;5000666;28;20194;-76
2022/07/03 10:16:58;;;;;;;9.13;8.43;;;;;;;29.61;36.33;93263.91;5001542;28;20340;-76
2022/07/03 10:19:28;;;;;;;8.55;8.05;;;;;;;29.51;34.81;93235.03;5003250;28;20176;-76
2022/07/03 10:22:01;;;;;;;8.45;7.70;;;;;;;29.31;32.08;93239.19;5000068;28;20203;-76
2022/07/03 10:24:29;;;;;;;8.40;7.90;;;;;;;29.31;33.73;93223.06;4999854;28;20219;-76
2022/07/03 10:26:55;;;;;;;7.57;7.07;;;;;;;29.66;33.37;93241.25;5001374;28;20241;-76
2022/07/03 10:29:22;;;;;;;7.93;7.53;;;;;;;29.86;33.45;93249.72;5003198;28;20266;-77
2022/07/03 10:31:48;;;;;;;8.10;7.50;;;;;;;29.92;33.69;93248.22;5001685;28;20223;-76
2022/07/03 10:34:19;;;;;;;8.32;7.82;;;;;;;29.79;31.95;93236.25;5000991;28;20190;-77
2022/07/03 10:36:47;;;;;;;8.45;7.85;;;;;;;30.09;33.75;93247.47;5008256;28;20218;-77
2022/07/03 10:39:21;;;;;;;7.32;6.93;;;;;;;29.98;33.44;93230.53;5002671;28;20190;-77
2022/07/03 10:44:49;;;;;;;8.45;7.90;;;;;;;30.76;30.84;93222.03;4998902;28;20230;-76
2022/07/03 10:47:37;;;;;;;8.60;7.80;;;;;;;30.76;31.99;93240.13;5001520;28;20246;-76
2022/07/03 10:50:07;;;;;;;8.10;7.60;;;;;;;30.47;32.39;93223.22;5001632;28;20241;-77
2022/07/03 10:52:33;;;;;;;9.32;8.63;;;;;;;30.91;31.17;93236.25;5000549;28;20231;-77
2022/07/03 10:54:59;;;;;;;8.80;8.00;;;;;;;30.81;31.27;93232.41;5001818;28;20215;-76
2022/07/03 10:57:25;;;;;;;8.32;7.82;;;;;;;30.63;30.45;93215.47;5003387;28;20231;-77
2022/07/03 10:59:51;;;;;;;7.85;7.43;;;;;;;30.80;32.04;93230.88;5001904;28;20180;-76
2022/07/03 11:02:31;;;;;;;9.05;8.45;;;;;;;30.52;32.46;93222.84;5001652;28;20228;-77
2022/07/03 11:04:57;;;;;;;10.20;9.35;;;;;;;30.00;33.50;93220.13;5001869;28;20206;-77
2022/07/03 11:07:23;;;;;;;9.32;8.52;;;;;;;29.83;34.29;93221.66;4997436;28;20255;-76
2022/07/03 11:10:13;;;;;;;8.50;7.95;;;;;;;29.85;34.05;93221.28;4981534;28;20216;-76
2022/07/03 11:13:04;;;;;;;9.05;8.45;;;;;;;29.59;35.27;93216.97;4987162;28;20723;-76
2022/07/03 11:15:49;;;;;;;8.52;7.93;;;;;;;29.43;36.46;93213.88;4985871;28;20268;-75
2022/07/03 11:18:14;;;;;;;9.30;8.63;;;;;;;29.36;36.15;93211.16;4984000;28;20197;-76
2022/07/03 11:20:43;;;;;;;9.23;8.63;;;;;;;29.37;35.70;93200.00;4980874;28;20239;-77
2022/07/03 11:23:20;;;;;;;8.65;8.02;;;;;;;29.52;34.09;93201.59;4982847;28;20188;-77
2022/07/03 11:25:51;;;;;;;9.02;8.32;;;;;;;29.52;34.38;93190.81;4998389;28;20278;-76
2022/07/03 11:28:32;;;;;;;8.68;7.97;;;;;;;29.54;34.49;93193.88;4981755;28;20184;-76
2022/07/03 11:31:18;;;;;;;9.40;8.63;;;;;;;29.66;34.01;93188.19;4982368;28;20238;-76
2022/07/03 11:33:56;;;;;;;8.55;8.05;;;;;;;29.80;35.99;93190.09;4981171;28;20215;-77
2022/07/03 11:36:21;;;;;;;9.55;8.80;;;;;;;29.93;35.56;93185.13;4988680;28;20239;-75
2022/07/03 11:38:58;;;;;;;9.32;8.63;;;;;;;29.65;35.32;93183.94;4980876;28;20204;-76
2022/07/03 11:41:36;;;;;;;8.93;8.13;;;;;;;29.47;34.96;93187.72;4983392;28;20571;-76